Time;durP1;ratioP1;P1;durP2;ratioP2;P2;SDS_P1;SDS_P2;PMS_P1;PMS_P2;Temp;Humidity;BMP_temperature;BMP_pressure;BME280_temperature;BME280_humidity;BME280_pressure;Samples;Min_cycle;Max_cycle;Signal;HPM_P1;HPM_P2
2022/03/13 00:03:21;;;;;;;18.73;10.25;;;;;;;5.92;38.28;100503.97;8215849;34;20196;-74
2022/03/13 00:08:29;;;;;;;16.75;9.27;;;;;;;5.86;37.61;100506.13;8194629;34;20447;-74
2022/03/13 00:13:35;;;;;;;15.68;9.45;;;;;;;5.73;37.61;100512.19;8217228;34;20194;-74
2022/03/13 00:18:44;;;;;;;14.43;8.65;;;;;;;5.82;37.43;100518.78;8217141;34;20192;-74
2022/03/13 00:23:49;;;;;;;14.93;8.50;;;;;;;5.75;37.26;100508.56;8216972;34;21272;-74
2022/03/13 00:28:52;;;;;;;14.98;8.35;;;;;;;5.73;37.47;100500.66;8210581;34;20256;-74
2022/03/13 00:33:58;;;;;;;14.73;8.55;;;;;;;5.67;37.37;100498.34;8189169;34;20899;-74
2022/03/13 00:39:02;;;;;;;12.90;9.02;;;;;;;5.71;37.46;100507.91;8222626;34;20207;-74
2022/03/13 00:44:06;;;;;;;12.98;8.70;;;;;;;5.69;37.16;100501.78;8229245;34;20582;-74
2022/03/13 00:49:10;;;;;;;15.65;8.07;;;;;;;5.64;37.08;100495.88;8219056;34;20181;-74
2022/03/13 00:54:13;;;;;;;11.98;8.40;;;;;;;5.63;37.32;100491.50;8269192;34;20494;-75
2022/03/13 00:59:17;;;;;;;16.20;9.85;;;;;;;5.62;37.34;100497.75;8266338;34;20465;-74
2022/03/13 01:04:22;;;;;;;14.32;8.60;;;;;;;5.50;36.88;100500.19;8262822;34;20148;-74
2022/03/13 01:09:25;;;;;;;15.85;9.10;;;;;;;5.46;37.00;100490.69;8264789;34;20877;-74
2022/03/13 01:14:32;;;;;;;14.88;8.30;;;;;;;5.40;37.10;100488.38;8266972;34;20148;-74
2022/03/13 01:19:38;;;;;;;12.88;8.80;;;;;;;5.38;37.37;100489.41;8266682;34;21053;-73
2022/03/13 01:24:44;;;;;;;15.95;8.95;;;;;;;5.28;37.26;100491.72;8266422;34;20270;-74
2022/03/13 01:29:47;;;;;;;14.25;9.10;;;;;;;5.23;37.42;100483.13;8265291;34;20183;-73
2022/03/13 01:34:54;;;;;;;16.67;8.25;;;;;;;5.18;37.50;100487.88;8265595;34;20207;-74
2022/03/13 01:39:59;;;;;;;14.90;8.20;;;;;;;5.13;37.33;100487.25;8263363;34;20438;-75
2022/03/13 01:45:02;;;;;;;13.90;8.30;;;;;;;5.10;37.61;100491.00;8267272;34;20199;-74
2022/03/13 01:50:09;;;;;;;14.38;8.52;;;;;;;5.03;37.95;100497.59;8269146;34;20155;-76
2022/03/13 01:55:13;;;;;;;13.98;8.32;;;;;;;4.81;38.33;100481.94;8274801;34;20163;-74
2022/03/13 02:00:19;;;;;;;15.52;8.73;;;;;;;4.65;38.74;100481.06;8261643;34;20239;-73
2022/03/13 02:05:32;;;;;;;11.27;8.02;;;;;;;4.59;38.83;100476.94;8233126;34;20176;-75
2022/03/13 02:10:35;;;;;;;14.25;8.60;;;;;;;4.47;38.85;100478.47;8235813;34;20340;-75
2022/03/13 02:15:39;;;;;;;13.30;8.77;;;;;;;4.42;38.81;100469.00;8215704;34;20426;-74
2022/03/13 02:20:46;;;;;;;13.82;9.18;;;;;;;4.39;38.91;100464.72;8213696;34;20441;-74
2022/03/13 02:25:52;;;;;;;15.65;8.70;;;;;;;4.38;38.45;100470.97;8212261;34;20627;-74
2022/03/13 02:30:59;;;;;;;15.48;8.70;;;;;;;4.38;38.27;100462.97;8265984;34;20478;-73
2022/03/13 02:36:06;;;;;;;13.40;8.75;;;;;;;4.42;38.27;100461.88;8262083;34;20144;-75
2022/03/13 02:41:11;;;;;;;13.10;8.02;;;;;;;4.37;38.36;100458.63;8261496;34;22420;-75
2022/03/13 02:46:21;;;;;;;20.92;9.13;;;;;;;4.44;38.02;100456.47;8209016;34;20432;-75
2022/03/13 02:51:24;;;;;;;14.25;7.97;;;;;;;4.44;37.88;100452.00;8203256;34;21576;-75
2022/03/13 02:56:28;;;;;;;12.80;7.68;;;;;;;4.38;37.92;100447.03;8205091;34;20208;-75
2022/03/13 03:01:32;;;;;;;14.70;8.13;;;;;;;4.34;37.63;100440.16;8205865;34;21003;-75
2022/03/13 03:06:38;;;;;;;14.60;8.70;;;;;;;4.32;38.06;100440.22;8206673;34;20156;-76
2022/03/13 03:11:44;;;;;;;15.13;8.77;;;;;;;4.28;37.85;100440.47;8212813;34;20437;-75
2022/03/13 03:16:48;;;;;;;12.55;8.10;;;;;;;4.24;38.28;100436.28;8212390;34;20441;-75
2022/03/13 03:21:52;;;;;;;15.02;9.05;;;;;;;4.09;38.40;100425.53;8208091;34;21445;-75
2022/03/13 03:26:57;;;;;;;13.57;8.77;;;;;;;3.91;38.51;100431.81;8205891;34;20184;-75
2022/03/13 03:32:02;;;;;;;15.52;8.75;;;;;;;3.93;38.29;100437.91;8209547;34;20231;-75
2022/03/13 03:37:05;;;;;;;13.18;8.18;;;;;;;4.01;38.25;100451.66;8192079;34;20192;-75
2022/03/13 03:42:10;;;;;;;15.77;8.48;;;;;;;3.97;38.26;100441.25;8219778;34;20629;-75
2022/03/13 03:47:13;;;;;;;11.85;8.45;;;;;;;3.86;38.57;100436.50;8215787;34;20228;-75
2022/03/13 03:52:16;;;;;;;15.52;8.88;;;;;;;3.81;38.71;100443.84;8213925;34;20145;-75
2022/03/13 03:57:20;;;;;;;16.23;9.45;;;;;;;3.80;39.03;100434.16;8213659;34;20253;-76
2022/03/13 04:02:23;;;;;;;17.25;9.52;;;;;;;3.67;38.72;100437.44;8212800;34;20437;-76
2022/03/13 04:07:26;;;;;;;15.77;8.90;;;;;;;3.63;38.99;100437.72;8210549;34;20444;-75
2022/03/13 04:12:32;;;;;;;15.93;8.77;;;;;;;3.70;38.88;100439.97;8210549;34;20952;-75
2022/03/13 04:17:35;;;;;;;14.88;8.35;;;;;;;3.58;39.69;100443.25;8212743;34;20426;-76
2022/03/13 04:22:38;;;;;;;12.38;8.68;;;;;;;3.47;39.33;100432.31;8212987;34;22076;-74
2022/03/13 04:27:44;;;;;;;17.10;8.90;;;;;;;3.35;40.02;100440.91;8211062;34;21074;-75
2022/03/13 04:32:47;;;;;;;16.15;8.93;;;;;;;3.29;39.85;100436.72;8216599;34;20899;-75
2022/03/13 04:37:50;;;;;;;13.50;8.05;;;;;;;3.30;39.81;100434.97;8216538;34;20157;-75
2022/03/13 04:42:54;;;;;;;15.68;8.80;;;;;;;3.35;39.53;100427.63;8212137;34;20236;-75
2022/03/13 04:47:57;;;;;;;13.18;8.82;;;;;;;3.31;39.80;100424.25;8262675;34;20537;-74
2022/03/13 04:53:00;;;;;;;14.90;8.05;;;;;;;3.25;39.84;100428.06;8270227;34;20465;-76
2022/03/13 04:58:05;;;;;;;18.23;8.97;;;;;;;3.13;39.89;100436.66;8268115;34;20518;-75
2022/03/13 05:03:10;;;;;;;13.57;8.57;;;;;;;3.17;39.96;100430.25;8266059;34;20426;-75
2022/03/13 05:08:15;;;;;;;16.67;8.25;;;;;;;3.06;39.80;100428.13;8257786;34;20559;-75
2022/03/13 05:13:22;;;;;;;15.25;8.20;;;;;;;3.09;39.75;100432.41;8256658;34;20482;-75
2022/03/13 05:18:25;;;;;;;15.68;9.00;;;;;;;3.14;39.59;100435.72;8254764;34;20324;-75
2022/03/13 05:23:28;;;;;;;15.52;9.70;;;;;;;3.08;39.33;100438.69;8255844;34;20876;-75
2022/03/13 05:28:32;;;;;;;13.38;7.82;;;;;;;3.08;39.10;100441.34;8253287;34;20171;-75
2022/03/13 05:33:35;;;;;;;20.27;9.18;;;;;;;3.13;39.74;100446.41;8259007;34;20925;-75
2022/03/13 05:38:38;;;;;;;14.82;8.73;;;;;;;3.10;39.34;100449.19;8263776;34;20587;-75
2022/03/13 05:43:49;;;;;;;13.63;9.18;;;;;;;3.09;39.53;100458.09;8265235;34;20179;-75
2022/03/13 05:48:52;;;;;;;14.40;9.63;;;;;;;3.07;39.59;100463.47;8274502;34;20136;-75
2022/03/13 05:54:00;;;;;;;12.03;8.33;;;;;;;3.07;39.36;100460.81;8277220;34;20449;-75
2022/03/13 05:59:05;;;;;;;10.55;7.32;;;;;;;2.96;39.51;100465.78;8275931;34;20486;-75
2022/03/13 06:04:08;;;;;;;13.32;8.55;;;;;;;2.94;39.22;100460.56;8266885;34;20140;-75
2022/03/13 06:09:12;;;;;;;14.45;8.60;;;;;;;2.92;39.66;100461.59;8266935;34;21453;-75
2022/03/13 06:14:18;;;;;;;14.57;8.20;;;;;;;3.03;38.93;100469.88;8265631;34;20430;-75
2022/03/13 06:19:21;;;;;;;14.47;8.17;;;;;;;3.05;38.93;100465.38;8261597;34;20192;-75
2022/03/13 06:24:25;;;;;;;13.63;8.35;;;;;;;3.29;38.25;100463.28;8261477;34;20215;-75
2022/03/13 06:29:31;;;;;;;12.70;8.43;;;;;;;3.51;38.26;100452.44;8260961;34;20148;-75
2022/03/13 06:34:36;;;;;;;15.75;7.72;;;;;;;3.67;37.61;100468.47;8265908;34;20523;-75
2022/03/13 06:39:41;;;;;;;12.98;7.38;;;;;;;3.98;37.35;100462.47;8258160;34;20598;-75
2022/03/13 06:44:45;;;;;;;13.65;8.45;;;;;;;4.27;36.86;100466.22;8258190;34;20403;-74
2022/03/13 06:49:50;;;;;;;14.32;8.07;;;;;;;4.44;36.55;100462.63;8258376;34;20905;-74
2022/03/13 06:54:53;;;;;;;13.25;7.88;;;;;;;4.77;36.02;100459.97;8258250;34;21471;-75
2022/03/13 07:00:00;;;;;;;9.52;5.50;;;;;;;5.10;37.48;100466.13;8257623;34;20867;-74
2022/03/13 07:05:04;;;;;;;9.25;6.43;;;;;;;5.56;35.75;100463.47;8263288;34;20439;-74
2022/03/13 07:10:12;;;;;;;10.82;6.78;;;;;;;5.92;35.22;100461.31;8259059;34;20212;-74
2022/03/13 07:15:19;;;;;;;12.23;7.18;;;;;;;6.34;34.66;100464.97;8255605;34;20584;-74
2022/03/13 07:20:22;;;;;;;14.15;8.15;;;;;;;6.68;33.98;100469.97;8257003;34;20423;-74
2022/03/13 07:25:25;;;;;;;11.23;7.53;;;;;;;6.78;33.81;100458.63;8264097;34;20443;-73
2022/03/13 07:30:30;;;;;;;16.55;8.65;;;;;;;6.84;33.09;100463.56;8270402;34;20560;-73
2022/03/13 07:35:33;;;;;;;15.15;8.07;;;;;;;7.13;32.70;100465.31;8278588;34;20712;-74
2022/03/13 07:40:36;;;;;;;14.15;7.50;;;;;;;7.28;32.88;100469.69;8279314;34;22165;-73
2022/03/13 07:45:41;;;;;;;12.18;7.43;;;;;;;7.40;32.28;100460.84;8304083;34;20559;-73
2022/03/13 07:50:44;;;;;;;12.32;8.35;;;;;;;7.17;31.83;100477.53;8293237;34;20255;-71
2022/03/13 07:55:47;;;;;;;15.07;8.55;;;;;;;7.03;31.55;100471.28;8287092;34;20191;-73
2022/03/13 08:00:53;;;;;;;13.02;8.07;;;;;;;7.33;32.17;100477.41;8286075;34;20436;-73
2022/03/13 08:05:56;;;;;;;14.45;8.90;;;;;;;7.38;32.25;100475.28;8288056;34;20476;-73
2022/03/13 08:10:59;;;;;;;11.93;8.57;;;;;;;7.57;31.81;100467.75;8264435;34;20456;-73
2022/03/13 08:16:05;;;;;;;12.25;7.57;;;;;;;7.59;32.05;100459.59;8257682;34;20470;-74
2022/03/13 08:21:09;;;;;;;11.98;8.68;;;;;;;8.01;31.05;100465.66;8264633;34;20373;-73
2022/03/13 08:26:12;;;;;;;18.98;12.00;;;;;;;8.38;32.14;100455.94;8267794;34;20539;-73
2022/03/13 08:31:17;;;;;;;16.67;9.45;;;;;;;8.30;31.37;100436.88;8266763;34;20442;-73
2022/03/13 08:36:20;;;;;;;13.93;9.07;;;;;;;8.61;30.39;100436.44;8280947;34;20553;-73
2022/03/13 08:41:23;;;;;;;13.57;9.90;;;;;;;8.74;30.75;100447.09;8310256;34;21048;-73
2022/03/13 08:46:28;;;;;;;11.98;8.65;;;;;;;8.77;30.65;100429.97;8309569;34;20514;-73
2022/03/13 08:51:31;;;;;;;12.82;8.65;;;;;;;8.89;30.54;100425.56;8292920;34;20815;-73
2022/03/13 08:56:35;;;;;;;14.10;8.82;;;;;;;9.38;29.51;100440.66;8287601;34;20756;-73
2022/03/13 09:01:40;;;;;;;12.95;8.73;;;;;;;9.64;29.30;100433.31;8278099;34;20570;-73
2022/03/13 09:06:43;;;;;;;12.70;8.18;;;;;;;9.50;29.03;100439.72;8264206;34;20183;-73
2022/03/13 09:11:47;;;;;;;12.13;8.18;;;;;;;9.59;29.48;100444.38;8257664;34;20493;-73
2022/03/13 09:16:51;;;;;;;11.73;8.15;;;;;;;9.76;28.66;100448.47;8257145;34;20148;-74
2022/03/13 09:21:55;;;;;;;14.80;8.65;;;;;;;9.69;29.19;100439.19;8260069;34;20430;-72
2022/03/13 09:26:57;;;;;;;14.75;8.07;;;;;;;9.97;30.21;100421.84;8259977;34;20916;-73
2022/03/13 09:32:02;;;;;;;11.52;8.15;;;;;;;10.90;28.19;100421.56;8258229;34;20420;-73
2022/03/13 09:37:05;;;;;;;10.85;7.28;;;;;;;11.64;28.39;100415.47;8258304;34;22342;-73
2022/03/13 09:42:09;;;;;;;12.77;7.68;;;;;;;11.64;27.18;100423.53;8254219;34;20510;-73
2022/03/13 09:47:13;;;;;;;13.50;8.35;;;;;;;11.05;26.82;100436.44;8257742;34;20336;-72
2022/03/13 09:52:16;;;;;;;14.57;8.00;;;;;;;11.62;26.62;100437.09;8254178;34;21032;-73
2022/03/13 09:57:20;;;;;;;14.68;8.40;;;;;;;12.12;26.34;100439.13;8254656;34;20427;-73
2022/03/13 10:02:34;;;;;;;11.70;8.00;;;;;;;12.50;26.15;100432.25;8255938;34;20188;-73
2022/03/13 10:07:58;;;;;;;11.40;8.23;;;;;;;12.70;24.37;100425.97;8255200;34;20148;-73
2022/03/13 10:13:02;;;;;;;10.98;8.18;;;;;;;12.61;25.39;100426.78;8258869;34;20152;-73
2022/03/13 10:18:14;;;;;;;11.95;8.07;;;;;;;13.08;24.60;100421.63;8260728;34;20530;-73
2022/03/13 10:23:19;;;;;;;11.00;7.95;;;;;;;13.11;24.72;100417.81;8267747;34;20199;-74
2022/03/13 10:28:28;;;;;;;11.95;7.80;;;;;;;13.44;23.74;100419.31;8260865;34;20235;-73
2022/03/13 10:33:55;;;;;;;12.30;8.77;;;;;;;13.35;24.38;100418.25;8259627;34;20432;-74
2022/03/13 10:38:58;;;;;;;12.65;7.97;;;;;;;13.53;24.73;100410.34;8259029;34;20358;-75
2022/03/13 10:44:03;;;;;;;12.55;8.90;;;;;;;13.91;25.08;100401.34;8259172;34;20448;-74
2022/03/13 10:49:09;;;;;;;13.20;8.52;;;;;;;14.00;24.41;100401.47;8259333;34;20908;-74
2022/03/13 10:54:28;;;;;;;11.60;8.35;;;;;;;14.37;24.38;100387.94;8268906;34;20183;-74
2022/03/13 10:59:31;;;;;;;12.82;8.90;;;;;;;14.28;24.67;100391.56;8274259;34;20507;-74
2022/03/13 11:04:36;;;;;;;17.85;11.55;;;;;;;14.73;24.25;100388.13;8260982;34;20434;-74
2022/03/13 11:09:39;;;;;;;13.15;8.43;;;;;;;14.86;23.12;100382.31;8259982;34;20140;-74
2022/03/13 11:14:43;;;;;;;10.35;7.60;;;;;;;14.95;23.42;100381.44;8259851;34;20492;-73
2022/03/13 11:19:52;;;;;;;11.55;8.52;;;;;;;15.07;23.73;100374.78;8258886;34;20597;-74
2022/03/13 11:24:59;;;;;;;13.05;7.95;;;;;;;15.90;23.46;100374.47;8263715;34;20154;-74
2022/03/13 11:30:06;;;;;;;9.00;7.68;;;;;;;15.73;23.21;100356.41;8264808;34;20432;-74
2022/03/13 11:35:31;;;;;;;10.80;8.65;;;;;;;16.19;23.24;100359.75;8263347;34;20519;-74
2022/03/13 11:40:36;;;;;;;12.40;7.88;;;;;;;16.70;22.31;100352.50;8263780;34;20202;-74
2022/03/13 11:45:41;;;;;;;12.45;8.48;;;;;;;17.48;21.79;100349.44;8285646;34;20418;-74
2022/03/13 11:50:51;;;;;;;11.85;8.07;;;;;;;18.47;20.60;100353.63;8318108;34;20201;-74
2022/03/13 11:56:05;;;;;;;11.13;8.43;;;;;;;18.23;20.08;100354.56;8322657;34;20191;-74
2022/03/13 12:01:09;;;;;;;12.02;8.25;;;;;;;18.63;20.73;100354.59;8323490;34;20187;-74
2022/03/13 12:06:39;;;;;;;10.75;8.35;;;;;;;17.42;20.65;100345.53;8263433;34;20141;-74
2022/03/13 12:11:45;;;;;;;13.50;8.25;;;;;;;18.26;20.46;100347.94;8234557;34;20256;-74
2022/03/13 12:17:08;;;;;;;12.13;8.45;;;;;;;18.61;21.09;100313.13;8250400;34;20441;-74
2022/03/13 12:22:14;;;;;;;14.70;9.77;;;;;;;18.84;21.02;100310.44;8245256;34;20553;-74
2022/03/13 12:27:19;;;;;;;10.77;8.68;;;;;;;19.49;20.40;100312.66;8310180;34;20191;-74
2022/03/13 12:32:31;;;;;;;12.70;8.48;;;;;;;18.93;20.49;100310.22;8264597;34;20505;-74
2022/03/13 12:37:36;;;;;;;12.93;9.75;;;;;;;19.14;20.69;100298.69;8264147;34;20654;-74
2022/03/13 12:42:53;;;;;;;12.32;8.60;;;;;;;19.91;20.33;100311.22;8264637;34;21194;-75
2022/03/13 12:48:03;;;;;;;10.80;8.02;;;;;;;20.36;20.09;100289.44;8266546;34;20900;-74
2022/03/13 12:53:07;;;;;;;11.13;8.68;;;;;;;20.05;20.46;100298.66;8265471;34;20245;-74
2022/03/13 12:58:11;;;;;;;11.38;8.80;;;;;;;19.15;20.90;100291.34;8264636;34;20442;-74
2022/03/13 13:03:14;;;;;;;10.55;7.93;;;;;;;18.78;21.50;100287.53;8262111;34;20160;-74
2022/03/13 13:08:19;;;;;;;11.98;8.82;;;;;;;18.92;22.09;100286.75;8263379;34;20441;-75
2022/03/13 13:13:24;;;;;;;11.63;8.70;;;;;;;19.48;21.54;100280.16;8269272;34;20195;-74
2022/03/13 13:18:28;;;;;;;15.18;8.98;;;;;;;18.77;22.30;100274.94;8266453;34;20448;-74
2022/03/13 13:23:32;;;;;;;11.07;8.98;;;;;;;19.12;21.56;100278.94;8260163;34;20449;-74
2022/03/13 13:28:35;;;;;;;11.88;9.30;;;;;;;19.81;21.20;100275.25;8210505;34;21057;-74
2022/03/13 13:33:38;;;;;;;17.80;9.55;;;;;;;20.74;20.22;100269.09;8243898;34;20523;-73
2022/03/13 13:38:43;;;;;;;12.93;9.10;;;;;;;21.82;19.53;100264.38;8236778;34;20444;-74
2022/03/13 13:43:46;;;;;;;13.30;9.50;;;;;;;22.03;19.44;100262.59;8234807;34;20445;-74
2022/03/13 13:48:51;;;;;;;12.45;9.32;;;;;;;23.17;19.40;100251.78;8229373;34;20420;-74
2022/03/13 13:54:00;;;;;;;12.90;9.85;;;;;;;22.95;18.91;100247.53;8257414;34;20566;-74
2022/03/13 13:59:20;;;;;;;11.93;9.63;;;;;;;23.55;18.70;100250.28;8258878;34;20436;-74
2022/03/13 14:04:23;;;;;;;10.70;9.10;;;;;;;22.36;19.61;100246.34;8240031;34;20152;-74
2022/03/13 14:09:28;;;;;;;16.23;10.63;;;;;;;21.33;19.90;100245.28;8227545;34;20188;-72
2022/03/13 14:14:31;;;;;;;13.55;9.68;;;;;;;21.85;20.01;100250.28;8218034;34;20962;-73
2022/03/13 14:19:34;;;;;;;14.95;10.32;;;;;;;22.80;18.83;100238.69;8227206;34;20513;-74
2022/03/13 14:24:39;;;;;;;14.60;9.95;;;;;;;21.70;19.83;100235.06;8280146;34;20555;-74
2022/03/13 14:29:42;;;;;;;14.73;10.98;;;;;;;21.04;19.99;100238.13;8291768;34;20217;-75
2022/03/13 14:34:45;;;;;;;13.57;9.63;;;;;;;21.84;19.86;100231.38;8333141;34;20464;-74
2022/03/13 14:39:51;;;;;;;14.10;10.40;;;;;;;20.97;19.83;100238.88;8335575;34;20461;-73
2022/03/13 14:44:54;;;;;;;14.80;10.25;;;;;;;21.67;20.13;100237.13;8322021;34;20478;-74
2022/03/13 14:50:01;;;;;;;14.20;10.98;;;;;;;21.92;18.90;100244.03;8319782;34;20433;-73
2022/03/13 14:55:09;;;;;;;15.20;11.52;;;;;;;21.58;19.34;100249.25;8320758;34;20620;-74
2022/03/13 15:00:13;;;;;;;15.43;10.68;;;;;;;21.57;19.70;100244.84;8320243;34;20182;-73
2022/03/13 15:05:17;;;;;;;14.45;10.52;;;;;;;19.99;20.48;100234.81;8321416;34;20437;-74
2022/03/13 15:10:22;;;;;;;14.73;11.27;;;;;;;19.69;21.19;100236.69;8326683;34;21114;-73
2022/03/13 15:15:25;;;;;;;16.55;10.80;;;;;;;18.93;21.87;100227.75;8318514;34;20177;-73
2022/03/13 15:20:29;;;;;;;14.48;10.55;;;;;;;17.84;22.60;100229.50;8318017;34;20440;-73
2022/03/13 15:25:33;;;;;;;16.80;10.85;;;;;;;17.98;22.46;100238.81;8262359;34;20246;-71
2022/03/13 15:30:38;;;;;;;14.18;10.52;;;;;;;17.38;23.37;100240.16;8266152;34;20670;-72
2022/03/13 15:35:41;;;;;;;16.33;11.02;;;;;;;16.97;23.00;100245.56;8314325;34;21233;-72
2022/03/13 15:40:46;;;;;;;14.27;9.82;;;;;;;17.03;22.92;100245.75;8324558;34;21018;-72
2022/03/13 15:45:51;;;;;;;14.32;10.38;;;;;;;16.37;23.98;100249.38;8333180;34;21896;-72
2022/03/13 15:50:54;;;;;;;13.60;10.20;;;;;;;16.22;24.32;100253.72;8306110;34;20468;-71
2022/03/13 15:55:59;;;;;;;14.38;10.88;;;;;;;16.56;24.28;100265.38;8305742;34;20522;-72
2022/03/13 16:01:02;;;;;;;15.38;10.82;;;;;;;16.36;24.74;100255.84;8311402;34;21723;-73
2022/03/13 16:06:05;;;;;;;14.38;9.88;;;;;;;16.11;24.43;100255.72;8312614;34;21375;-73
2022/03/13 16:11:10;;;;;;;16.73;10.63;;;;;;;15.79;25.12;100255.56;8312693;34;20227;-73
2022/03/13 16:16:14;;;;;;;16.83;10.88;;;;;;;15.40;24.88;100264.16;8309391;34;21079;-73
2022/03/13 16:21:17;;;;;;;14.15;10.27;;;;;;;15.20;26.08;100258.91;8285203;34;20203;-74
2022/03/13 16:26:22;;;;;;;13.75;10.20;;;;;;;14.77;26.55;100263.25;8281817;34;20468;-73
2022/03/13 16:31:25;;;;;;;12.82;9.73;;;;;;;14.26;27.01;100269.28;8283423;34;20225;-73
2022/03/13 16:36:29;;;;;;;13.90;10.35;;;;;;;14.10;27.64;100272.66;8265631;34;20180;-74
2022/03/13 16:41:34;;;;;;;14.50;9.90;;;;;;;13.77;27.25;100280.31;8272573;34;20152;-72
2022/03/13 16:46:37;;;;;;;15.80;10.32;;;;;;;13.57;27.77;100275.97;8277107;34;20183;-74
2022/03/13 16:51:40;;;;;;;15.48;10.25;;;;;;;13.26;28.10;100278.84;8268096;34;20804;-74
2022/03/13 16:56:45;;;;;;;15.30;10.65;;;;;;;12.96;28.28;100290.66;8264841;34;21028;-74
2022/03/13 17:01:50;;;;;;;16.55;9.45;;;;;;;12.95;28.15;100283.56;8265259;34;20401;-72
2022/03/13 17:06:53;;;;;;;17.52;11.05;;;;;;;12.70;28.26;100284.94;8264409;34;20455;-72
2022/03/13 17:11:58;;;;;;;17.33;10.73;;;;;;;12.50;28.34;100286.78;8263190;34;20441;-72
2022/03/13 17:17:01;;;;;;;15.50;10.32;;;;;;;12.40;28.34;100294.88;8266366;34;21647;-73
2022/03/13 17:22:05;;;;;;;15.88;9.48;;;;;;;12.34;28.47;100308.84;8289462;34;20435;-73
2022/03/13 17:27:12;;;;;;;14.02;9.55;;;;;;;12.37;28.54;100312.16;8291960;34;20133;-73
2022/03/13 17:32:15;;;;;;;17.58;10.18;;;;;;;12.32;28.63;100314.41;8289828;34;20426;-73
2022/03/13 17:37:18;;;;;;;16.63;11.00;;;;;;;12.21;28.71;100317.16;8291305;34;20474;-73
2022/03/13 17:42:23;;;;;;;21.70;13.82;;;;;;;12.13;29.00;100328.63;8291072;34;20135;-72
2022/03/13 17:47:26;;;;;;;14.80;9.98;;;;;;;11.95;29.21;100330.22;8285538;34;20179;-74
2022/03/13 17:52:29;;;;;;;17.90;10.73;;;;;;;11.73;29.84;100331.25;8289627;34;21098;-73
2022/03/13 17:57:34;;;;;;;17.65;11.60;;;;;;;11.64;30.03;100343.66;8245559;34;20578;-74
2022/03/13 18:02:37;;;;;;;23.35;12.70;;;;;;;11.47;30.92;100344.28;8236450;34;20450;-73
2022/03/13 18:07:40;;;;;;;23.23;12.98;;;;;;;11.28;31.37;100350.34;8235665;34;20641;-73
2022/03/13 18:12:44;;;;;;;20.15;12.70;;;;;;;11.01;32.07;100357.03;8234290;34;20260;-74
2022/03/13 18:17:47;;;;;;;18.73;11.63;;;;;;;10.88;32.53;100367.09;8237988;34;20441;-73
2022/03/13 18:22:57;;;;;;;18.55;12.35;;;;;;;10.59;32.80;100364.97;8247299;34;20583;-73
2022/03/13 18:28:03;;;;;;;17.52;11.70;;;;;;;10.49;33.56;100358.63;8235526;34;20468;-74
2022/03/13 18:33:06;;;;;;;17.27;11.00;;;;;;;10.38;33.56;100364.88;8238706;34;20728;-73
2022/03/13 18:38:09;;;;;;;15.13;10.13;;;;;;;10.26;33.52;100370.38;8222561;34;20188;-74
2022/03/13 18:43:14;;;;;;;16.13;10.75;;;;;;;10.44;33.32;100376.94;8214159;34;20419;-73
2022/03/13 18:48:17;;;;;;;18.83;10.70;;;;;;;10.24;33.95;100378.56;8221109;34;20210;-74
2022/03/13 18:53:21;;;;;;;15.85;10.95;;;;;;;10.04;34.35;100379.25;8233246;34;20358;-74
2022/03/13 18:58:25;;;;;;;21.52;11.35;;;;;;;9.86;34.64;100381.59;8237814;34;20443;-74
2022/03/13 19:03:28;;;;;;;18.00;12.00;;;;;;;9.70;34.91;100387.25;8225207;34;20426;-74
2022/03/13 19:08:32;;;;;;;17.08;10.60;;;;;;;9.57;34.96;100390.03;8214668;34;20333;-74
2022/03/13 19:13:37;;;;;;;19.52;10.55;;;;;;;9.50;34.87;100386.94;8213022;34;20463;-74
2022/03/13 19:18:40;;;;;;;17.17;10.25;;;;;;;9.59;34.75;100396.13;8209502;34;20222;-73
2022/03/13 19:23:43;;;;;;;16.67;10.68;;;;;;;9.60;34.64;100396.97;8222644;34;20149;-73
2022/03/13 19:28:48;;;;;;;16.80;10.27;;;;;;;9.53;34.76;100396.59;8225941;34;20184;-74
2022/03/13 19:33:52;;;;;;;18.33;10.25;;;;;;;9.42;34.75;100402.78;8231669;34;20145;-74
2022/03/13 19:38:55;;;;;;;16.05;10.95;;;;;;;9.52;34.53;100405.63;8232198;34;20258;-74
2022/03/13 19:44:02;;;;;;;17.00;10.77;;;;;;;9.41;34.43;100414.47;8237504;34;20283;-73
2022/03/13 19:49:05;;;;;;;15.00;10.50;;;;;;;9.43;34.54;100417.88;8236247;34;20204;-73
2022/03/13 19:54:08;;;;;;;14.35;9.45;;;;;;;9.36;34.52;100419.31;8236871;34;21837;-74
2022/03/13 19:59:14;;;;;;;15.52;10.45;;;;;;;9.18;34.38;100421.56;8235632;34;20225;-75
2022/03/13 20:04:32;;;;;;;14.60;10.20;;;;;;;9.12;34.45;100424.69;8232170;34;20431;-74
2022/03/13 20:09:36;;;;;;;17.73;10.55;;;;;;;9.18;33.98;100426.91;8228946;34;20179;-73
2022/03/13 20:14:44;;;;;;;18.02;9.90;;;;;;;9.29;34.01;100426.09;8228163;34;21043;-74
2022/03/13 20:19:47;;;;;;;16.92;10.15;;;;;;;9.27;34.02;100431.59;8219102;34;20153;-73
2022/03/13 20:24:52;;;;;;;13.65;10.52;;;;;;;9.16;34.05;100434.22;8224042;34;20202;-73
2022/03/13 20:29:56;;;;;;;16.20;9.90;;;;;;;9.16;33.83;100428.00;8233940;34;20855;-73
2022/03/13 20:35:00;;;;;;;15.45;10.07;;;;;;;9.23;33.88;100437.28;8229813;34;20478;-74
2022/03/13 20:40:04;;;;;;;16.55;9.73;;;;;;;9.31;33.56;100444.78;8218090;34;20207;-75
2022/03/13 20:45:12;;;;;;;14.15;9.55;;;;;;;9.31;33.75;100447.44;8234206;34;20185;-73
2022/03/13 20:50:16;;;;;;;15.23;10.02;;;;;;;9.22;33.52;100449.00;8240991;34;20302;-75
2022/03/13 20:55:19;;;;;;;14.13;10.02;;;;;;;9.05;34.03;100458.25;8220490;34;22259;-73
2022/03/13 21:00:24;;;;;;;15.40;10.20;;;;;;;9.22;33.75;100462.41;8214164;34;20429;-73
2022/03/13 21:05:28;;;;;;;15.55;9.75;;;;;;;9.11;33.85;100465.88;8208781;34;20989;-73
2022/03/13 21:10:33;;;;;;;14.35;9.52;;;;;;;9.19;33.49;100468.84;8207344;34;20177;-73
2022/03/13 21:15:37;;;;;;;15.70;10.20;;;;;;;9.22;32.99;100473.97;8216189;34;20226;-73
2022/03/13 21:20:41;;;;;;;13.68;9.65;;;;;;;9.29;33.42;100480.56;8214915;34;20447;-73
2022/03/13 21:25:45;;;;;;;14.77;9.93;;;;;;;9.29;33.21;100485.09;8216128;34;20185;-73
2022/03/13 21:30:49;;;;;;;16.92;10.40;;;;;;;9.26;33.13;100479.94;8213538;34;20428;-73
2022/03/13 21:35:53;;;;;;;15.00;10.40;;;;;;;9.36;33.13;100482.81;8212232;34;20434;-73
2022/03/13 21:40:56;;;;;;;17.25;11.32;;;;;;;9.33;32.92;100494.63;8239347;34;20620;-73
2022/03/13 21:46:00;;;;;;;17.38;11.15;;;;;;;9.37;33.21;100492.56;8237573;34;20174;-73
2022/03/13 21:51:03;;;;;;;16.08;9.50;;;;;;;9.23;33.31;100496.25;8236895;34;20596;-73
2022/03/13 21:56:06;;;;;;;11.27;9.40;;;;;;;9.19;33.17;100486.75;8232029;34;20478;-73
2022/03/13 22:01:11;;;;;;;13.52;9.93;;;;;;;9.13;33.10;100490.72;8239023;34;20442;-74
2022/03/13 22:06:15;;;;;;;13.80;10.40;;;;;;;9.02;33.25;100501.34;8234910;34;20251;-74
2022/03/13 22:11:18;;;;;;;14.45;9.77;;;;;;;9.04;32.74;100494.94;8236403;34;20649;-74
2022/03/13 22:16:24;;;;;;;13.73;10.23;;;;;;;8.97;32.34;100501.72;8245651;34;20426;-74
2022/03/13 22:21:27;;;;;;;15.82;9.75;;;;;;;9.09;32.03;100504.47;8263961;34;20516;-74
2022/03/13 22:26:30;;;;;;;15.57;10.15;;;;;;;9.15;32.08;100501.34;8262490;34;20428;-74
2022/03/13 22:31:39;;;;;;;12.85;10.35;;;;;;;9.08;32.16;100494.69;8258165;34;21031;-74
2022/03/13 22:36:42;;;;;;;14.00;10.18;;;;;;;9.00;32.21;100504.16;8239722;34;20250;-73
2022/03/13 22:41:45;;;;;;;22.58;12.68;;;;;;;8.90;32.34;100507.63;8263516;34;20152;-74
2022/03/13 22:46:54;;;;;;;14.73;10.38;;;;;;;8.81;32.25;100507.31;8259538;34;20561;-73
2022/03/13 22:52:04;;;;;;;15.32;10.45;;;;;;;8.72;32.69;100513.34;8258882;34;20162;-73
2022/03/13 22:57:10;;;;;;;12.68;9.50;;;;;;;8.66;32.90;100519.09;8260289;34;20443;-74
2022/03/13 23:02:34;;;;;;;14.02;9.48;;;;;;;8.51;33.32;100523.75;8258724;34;20420;-74
2022/03/13 23:07:37;;;;;;;16.50;10.15;;;;;;;8.45;33.72;100526.81;8258888;34;20160;-74
2022/03/13 23:12:41;;;;;;;18.70;10.55;;;;;;;8.42;33.87;100529.72;8259876;34;20441;-74
2022/03/13 23:17:46;;;;;;;15.00;9.98;;;;;;;8.43;33.63;100530.56;8260563;34;20223;-74
2022/03/13 23:22:52;;;;;;;14.30;10.20;;;;;;;8.39;33.26;100543.28;8261167;34;20198;-74
2022/03/13 23:27:55;;;;;;;14.32;10.48;;;;;;;8.41;33.04;100538.69;8264145;34;20645;-73